Time;durP1;ratioP1;P1;durP2;ratioP2;P2;SDS_P1;SDS_P2;PMS_P1;PMS_P2;Temp;Humidity;BMP_temperature;BMP_pressure;BME280_temperature;BME280_humidity;BME280_pressure;Samples;Min_cycle;Max_cycle;Signal;HPM_P1;HPM_P2
2023/09/06 00:00:42;;;;;;;6.10;3.55;;;18.90;65.40;;;;;;5076258;28;20037;-67
2023/09/06 00:03:10;;;;;;;5.65;3.60;;;18.80;65.60;;;;;;5075997;28;20033;-68
2023/09/06 00:05:41;;;;;;;5.63;3.60;;;18.80;65.60;;;;;;5058158;28;20028;-67
2023/09/06 00:08:09;;;;;;;5.22;3.70;;;18.80;65.50;;;;;;5058748;28;20129;-69
2023/09/06 00:10:38;;;;;;;7.07;4.05;;;18.80;66.10;;;;;;5075528;28;20020;-67
2023/09/06 00:13:06;;;;;;;7.00;4.32;;;18.70;65.50;;;;;;5025604;28;20396;-67
2023/09/06 00:15:32;;;;;;;6.88;3.85;;;18.70;66.10;;;;;;5075712;28;20063;-69
2023/09/06 00:17:58;;;;;;;8.35;4.32;;;18.60;66.10;;;;;;5075616;28;20025;-68
2023/09/06 00:20:24;;;;;;;6.40;4.47;;;18.60;66.20;;;;;;5075641;28;20438;-69
2023/09/06 00:22:58;;;;;;;8.13;4.60;;;18.50;66.80;;;;;;5075960;28;20035;-67
2023/09/06 00:25:26;;;;;;;8.30;4.53;;;18.50;66.70;;;;;;5075652;28;20442;-68
2023/09/06 00:27:52;;;;;;;7.10;4.82;;;18.40;66.50;;;;;;5075305;28;20086;-67
2023/09/06 00:30:18;;;;;;;6.85;4.50;;;18.50;66.90;;;;;;5075240;28;20032;-67
2023/09/06 00:32:45;;;;;;;7.50;4.60;;;18.40;66.80;;;;;;5075628;28;20399;-67
2023/09/06 00:35:13;;;;;;;5.75;4.05;;;18.40;66.80;;;;;;5075164;28;20465;-67
2023/09/06 00:37:40;;;;;;;5.72;3.70;;;18.40;67.10;;;;;;5075411;28;20092;-68
2023/09/06 00:40:19;;;;;;;7.97;4.13;;;18.40;66.60;;;;;;5075717;28;20104;-69
2023/09/06 00:42:50;;;;;;;9.05;4.38;;;18.40;67.00;;;;;;5075451;28;20108;-68
2023/09/06 00:45:19;;;;;;;8.57;4.18;;;18.40;66.80;;;;;;5058748;28;20028;-67
2023/09/06 00:47:45;;;;;;;6.32;4.32;;;18.40;66.90;;;;;;5074978;28;20028;-67
2023/09/06 00:50:14;;;;;;;6.30;4.22;;;18.40;67.00;;;;;;5075549;28;20032;-68
2023/09/06 00:52:41;;;;;;;7.63;4.55;;;18.40;66.60;;;;;;5074984;28;20398;-67
2023/09/06 00:55:09;;;;;;;4.88;3.88;;;18.40;66.60;;;;;;5041295;28;20032;-68
2023/09/06 00:57:35;;;;;;;7.43;4.15;;;18.40;66.40;;;;;;5075208;28;20016;-67
2023/09/06 01:00:07;;;;;;;6.30;4.55;;;18.50;66.10;;;;;;5058776;28;20166;-67
2023/09/06 01:02:32;;;;;;;6.03;4.40;;;18.50;66.10;;;;;;5079104;28;20028;-68
2023/09/06 01:04:59;;;;;;;6.38;4.22;;;18.60;65.90;;;;;;5079066;28;20040;-68
2023/09/06 01:07:28;;;;;;;8.13;4.45;;;18.60;65.80;;;;;;5078831;28;20055;-68
2023/09/06 01:09:54;;;;;;;6.18;4.13;;;18.60;65.70;;;;;;5079148;28;20059;-68
2023/09/06 01:12:20;;;;;;;5.90;4.03;;;18.60;65.60;;;;;;5079495;28;20052;-67
2023/09/06 01:14:46;;;;;;;7.13;4.32;;;18.60;65.50;;;;;;5078873;28;20045;-67
2023/09/06 01:17:15;;;;;;;6.25;4.15;;;18.70;65.60;;;;;;5078791;28;20021;-67
2023/09/06 01:19:46;;;;;;;5.50;3.55;;;18.60;65.80;;;;;;5078790;28;20032;-67
2023/09/06 01:22:26;;;;;;;6.05;3.70;;;18.60;65.50;;;;;;5079036;28;20052;-68
2023/09/06 01:24:52;;;;;;;6.85;4.30;;;18.60;65.60;;;;;;5078665;28;20357;-68
2023/09/06 01:27:19;;;;;;;5.78;4.03;;;18.60;65.70;;;;;;5078541;28;20040;-68
2023/09/06 01:29:45;;;;;;;6.90;3.97;;;18.60;65.70;;;;;;5078589;28;20099;-68
2023/09/06 01:32:14;;;;;;;6.35;4.00;;;18.60;65.80;;;;;;5078589;28;20029;-67
2023/09/06 01:34:39;;;;;;;5.65;3.55;;;18.60;65.60;;;;;;5079041;28;20036;-67
2023/09/06 01:37:05;;;;;;;4.97;3.58;;;18.50;65.60;;;;;;5078640;28;20021;-67
2023/09/06 01:39:32;;;;;;;5.25;3.50;;;18.50;65.60;;;;;;5078419;28;20042;-68
2023/09/06 01:41:58;;;;;;;6.25;3.78;;;18.40;65.70;;;;;;5078648;28;20028;-68
2023/09/06 01:44:24;;;;;;;5.47;3.45;;;18.40;65.80;;;;;;5078631;28;20028;-68
2023/09/06 01:46:50;;;;;;;5.50;4.10;;;18.40;66.00;;;;;;5078237;28;20383;-67
2023/09/06 01:49:16;;;;;;;6.78;4.20;;;18.40;66.20;;;;;;5078160;28;20021;-67
2023/09/06 01:51:42;;;;;;;5.43;3.80;;;18.30;66.20;;;;;;5078421;28;20039;-67
2023/09/06 01:54:11;;;;;;;12.48;3.97;;;18.30;66.20;;;;;;5078445;28;20017;-68
2023/09/06 01:56:37;;;;;;;7.93;3.50;;;18.40;66.20;;;;;;5077990;28;20103;-68
2023/09/06 01:59:03;;;;;;;7.55;4.30;;;18.30;66.40;;;;;;5078349;28;20028;-67
2023/09/06 02:01:30;;;;;;;6.68;4.10;;;18.40;66.40;;;;;;5078577;28;20024;-67
2023/09/06 02:03:57;;;;;;;8.55;4.43;;;18.40;66.20;;;;;;5077915;28;20366;-67
2023/09/06 02:06:23;;;;;;;7.80;4.65;;;18.40;66.20;;;;;;5078201;28;20036;-68
2023/09/06 02:08:49;;;;;;;5.65;3.70;;;18.30;66.30;;;;;;5078105;28;20028;-68
2023/09/06 02:11:15;;;;;;;6.07;3.75;;;18.40;66.20;;;;;;5076364;28;20446;-67
2023/09/06 02:13:41;;;;;;;5.10;3.55;;;18.40;66.20;;;;;;5077834;28;20099;-68
2023/09/06 02:16:06;;;;;;;5.57;3.35;;;18.40;66.20;;;;;;5077699;28;20055;-67
2023/09/06 02:18:32;;;;;;;5.15;3.72;;;18.40;66.10;;;;;;5077607;28;20417;-68
2023/09/06 02:20:59;;;;;;;4.75;3.10;;;18.40;66.20;;;;;;5077945;28;20056;-69
2023/09/06 02:23:25;;;;;;;6.13;3.50;;;18.30;66.20;;;;;;5077573;28;20107;-67
2023/09/06 02:25:51;;;;;;;6.53;4.05;;;18.30;66.20;;;;;;5077562;28;20099;-68
2023/09/06 02:28:17;;;;;;;7.88;3.90;;;18.30;66.30;;;;;;5077569;28;20422;-68
2023/09/06 02:30:44;;;;;;;6.57;4.55;;;18.30;66.50;;;;;;5077442;28;20111;-68
2023/09/06 02:33:14;;;;;;;6.15;3.83;;;18.30;66.30;;;;;;5077462;28;20017;-68
2023/09/06 02:35:41;;;;;;;6.30;4.00;;;18.30;66.30;;;;;;5077340;28;20043;-68
2023/09/06 02:38:11;;;;;;;6.03;3.65;;;18.20;66.30;;;;;;5077631;28;20016;-68
2023/09/06 02:40:40;;;;;;;5.22;3.67;;;18.30;66.30;;;;;;5059647;28;20454;-67
2023/09/06 02:43:07;;;;;;;6.20;3.70;;;18.30;66.20;;;;;;5077512;28;20439;-68
2023/09/06 02:45:39;;;;;;;6.53;3.92;;;18.30;66.30;;;;;;5077202;28;20366;-68
2023/09/06 02:48:15;;;;;;;5.57;3.92;;;18.30;66.40;;;;;;5077563;28;20126;-69
2023/09/06 02:50:43;;;;;;;5.88;3.97;;;18.30;66.60;;;;;;5077376;28;20036;-68
2023/09/06 02:53:19;;;;;;;7.57;3.70;;;18.20;66.50;;;;;;5077300;28;20330;-67
2023/09/06 02:55:48;;;;;;;6.28;3.42;;;18.20;66.40;;;;;;5076950;28;20373;-67
2023/09/06 02:58:18;;;;;;;4.22;3.50;;;18.20;66.40;;;;;;5077253;28;20032;-67
2023/09/06 03:00:47;;;;;;;5.97;3.60;;;18.20;66.50;;;;;;5076968;28;20036;-68
2023/09/06 03:03:15;;;;;;;5.47;3.83;;;18.20;66.70;;;;;;5077153;28;20099;-67
2023/09/06 03:05:42;;;;;;;4.85;3.47;;;18.20;66.80;;;;;;5076969;28;20449;-66
2023/09/06 03:08:09;;;;;;;5.68;3.92;;;18.20;66.80;;;;;;5076534;28;20048;-67
2023/09/06 03:10:40;;;;;;;5.90;4.05;;;18.20;66.60;;;;;;5076892;28;20074;-67
2023/09/06 03:13:08;;;;;;;4.85;3.47;;;18.20;66.90;;;;;;5076598;28;20439;-68
2023/09/06 03:15:35;;;;;;;7.25;3.58;;;18.10;66.90;;;;;;5076915;28;20032;-68
2023/09/06 03:18:02;;;;;;;4.68;3.60;;;18.10;66.70;;;;;;5076530;28;20056;-68
2023/09/06 03:20:42;;;;;;;5.75;3.45;;;18.10;66.80;;;;;;5076794;28;20115;-67
2023/09/06 03:23:17;;;;;;;4.68;3.42;;;18.00;66.80;;;;;;5076373;28;20054;-68
2023/09/06 03:25:54;;;;;;;5.45;3.33;;;18.00;66.90;;;;;;5076640;28;20349;-67
2023/09/06 03:28:21;;;;;;;5.40;3.50;;;18.00;67.10;;;;;;5076712;28;20070;-67
2023/09/06 03:30:48;;;;;;;6.15;3.63;;;18.00;67.20;;;;;;5076538;28;20032;-68
2023/09/06 03:33:14;;;;;;;6.15;3.90;;;17.90;67.30;;;;;;5076542;28;20078;-68
2023/09/06 03:35:45;;;;;;;6.25;3.53;;;17.90;67.40;;;;;;5076789;28;20046;-68
2023/09/06 03:38:15;;;;;;;4.95;3.58;;;17.90;67.50;;;;;;5076454;28;20097;-67
2023/09/06 03:40:42;;;;;;;7.88;5.10;;;17.80;67.70;;;;;;5075202;28;20036;-67
2023/09/06 03:43:15;;;;;;;6.35;3.60;;;17.80;67.90;;;;;;5058595;28;20031;-67
2023/09/06 03:45:45;;;;;;;5.40;3.88;;;17.70;68.10;;;;;;5076267;28;20143;-68
2023/09/06 03:48:17;;;;;;;7.22;3.90;;;17.50;68.30;;;;;;5075953;28;20024;-68
2023/09/06 03:50:43;;;;;;;5.22;3.75;;;17.50;68.50;;;;;;5075835;28;20476;-68
2023/09/06 03:53:13;;;;;;;6.00;4.03;;;17.40;68.70;;;;;;5076441;28;20047;-67
2023/09/06 03:55:41;;;;;;;6.72;3.97;;;17.40;68.90;;;;;;5075803;28;20051;-68
2023/09/06 03:58:09;;;;;;;6.60;4.47;;;17.40;69.30;;;;;;5076073;28;20047;-67
2023/09/06 04:00:39;;;;;;;6.95;3.95;;;17.40;69.40;;;;;;5075697;28;20449;-67
2023/09/06 04:03:07;;;;;;;6.82;4.13;;;17.30;69.60;;;;;;5076460;28;20028;-68
2023/09/06 04:05:34;;;;;;;5.88;3.70;;;17.30;69.60;;;;;;5075617;28;20028;-68
2023/09/06 04:08:06;;;;;;;8.18;4.13;;;17.30;69.50;;;;;;5075337;28;20051;-67
2023/09/06 04:10:36;;;;;;;5.78;3.80;;;17.20;69.50;;;;;;5075870;28;20345;-67
2023/09/06 04:13:10;;;;;;;6.10;3.60;;;17.20;69.50;;;;;;5075822;28;20388;-67
2023/09/06 04:15:37;;;;;;;6.93;4.20;;;17.20;69.60;;;;;;5075827;28;20048;-67
2023/09/06 04:18:09;;;;;;;8.50;4.35;;;17.20;69.80;;;;;;5075664;28;20020;-68
2023/09/06 04:20:36;;;;;;;5.70;3.93;;;17.20;69.80;;;;;;5075836;28;20029;-68
2023/09/06 04:23:12;;;;;;;6.53;3.78;;;17.10;69.70;;;;;;5075667;28;20064;-68
2023/09/06 04:25:44;;;;;;;8.13;3.58;;;17.00;70.10;;;;;;5075659;28;20085;-67
2023/09/06 04:28:12;;;;;;;6.70;4.10;;;16.90;70.40;;;;;;5075315;28;20040;-68
2023/09/06 04:30:43;;;;;;;8.85;4.00;;;16.90;70.30;;;;;;5075472;28;20047;-67
2023/09/06 04:33:12;;;;;;;7.10;4.35;;;16.90;70.70;;;;;;5075585;28;20103;-68
2023/09/06 04:35:42;;;;;;;5.60;4.03;;;16.90;70.80;;;;;;5074774;28;20103;-68
2023/09/06 04:38:09;;;;;;;6.20;3.78;;;16.90;70.80;;;;;;5057559;28;20033;-67
2023/09/06 04:40:37;;;;;;;6.15;3.90;;;16.90;70.80;;;;;;5075456;28;20075;-68
2023/09/06 04:43:07;;;;;;;7.07;4.32;;;16.90;71.00;;;;;;5075154;28;20078;-67
2023/09/06 04:45:37;;;;;;;6.88;4.20;;;16.80;71.00;;;;;;5075114;28;20074;-67
2023/09/06 04:48:05;;;;;;;7.70;4.45;;;16.90;71.10;;;;;;5075005;28;20028;-67
2023/09/06 04:50:31;;;;;;;9.77;4.82;;;16.80;71.10;;;;;;5074973;28;20020;-68
2023/09/06 04:52:57;;;;;;;8.50;4.80;;;16.90;71.20;;;;;;5075160;28;20096;-67
2023/09/06 04:55:23;;;;;;;6.70;4.10;;;16.90;70.70;;;;;;5075077;28;20493;-67
2023/09/06 04:57:50;;;;;;;6.95;4.53;;;16.90;71.10;;;;;;5075017;28;20036;-66
2023/09/06 05:00:30;;;;;;;6.80;4.45;;;16.90;71.00;;;;;;5075038;28;20036;-68
2023/09/06 05:02:57;;;;;;;6.97;4.65;;;16.90;71.50;;;;;;5057434;28;20020;-67
2023/09/06 05:05:24;;;;;;;8.40;4.65;;;17.10;71.90;;;;;;5074979;28;20036;-68
2023/09/06 05:07:51;;;;;;;10.25;4.70;;;17.90;71.50;;;;;;5053650;28;20066;-68
2023/09/06 05:10:17;;;;;;;5.75;4.00;;;18.90;69.50;;;;;;5055140;28;20108;-68
2023/09/06 05:12:45;;;;;;;9.32;4.20;;;20.00;67.30;;;;;;5055216;28;20104;-68
2023/09/06 05:15:14;;;;;;;7.80;4.30;;;21.10;64.70;;;;;;5054793;28;20426;-68
2023/09/06 05:17:41;;;;;;;8.35;4.25;;;22.30;62.30;;;;;;5054831;28;20067;-68
2023/09/06 05:20:28;;;;;;;7.30;4.30;;;23.30;59.90;;;;;;5055140;28;20087;-68
2023/09/06 05:23:04;;;;;;;7.32;3.75;;;24.50;57.50;;;;;;5054825;28;20032;-69
2023/09/06 05:25:32;;;;;;;9.13;4.50;;;25.50;55.50;;;;;;5055302;28;20029;-69
2023/09/06 05:28:02;;;;;;;5.95;3.85;;;26.60;53.10;;;;;;5054982;28;20062;-68
2023/09/06 05:30:28;;;;;;;6.38;3.97;;;27.50;51.60;;;;;;5053949;28;20043;-68
2023/09/06 05:32:57;;;;;;;5.70;4.00;;;28.40;49.80;;;;;;5053052;28;20021;-68
2023/09/06 05:35:24;;;;;;;7.30;3.60;;;29.20;48.10;;;;;;5052037;28;20033;-69
2023/09/06 05:37:50;;;;;;;7.60;4.00;;;29.80;46.80;;;;;;5035805;28;20461;-68
2023/09/06 05:40:22;;;;;;;5.53;3.65;;;30.50;45.80;;;;;;5053964;28;20021;-69
2023/09/06 05:42:51;;;;;;;7.40;3.75;;;31.40;44.90;;;;;;5053105;28;20079;-68
2023/09/06 05:45:19;;;;;;;7.35;3.78;;;32.20;43.50;;;;;;5052051;28;20131;-69
2023/09/06 05:47:45;;;;;;;6.63;3.80;;;33.10;42.50;;;;;;5052957;28;20032;-69
2023/09/06 05:50:11;;;;;;;8.38;4.03;;;33.90;41.20;;;;;;5056872;28;20362;-68
2023/09/06 05:52:38;;;;;;;7.38;3.67;;;34.60;39.90;;;;;;5049264;28;20526;-69
2023/09/06 05:55:04;;;;;;;6.15;3.78;;;35.30;38.80;;;;;;5045303;28;20092;-68
2023/09/06 05:57:32;;;;;;;5.25;3.53;;;35.70;37.50;;;;;;5053377;28;20017;-69
2023/09/06 05:59:58;;;;;;;6.85;3.78;;;36.20;36.50;;;;;;5051490;28;20036;-71
2023/09/06 06:02:24;;;;;;;6.35;3.50;;;36.70;35.40;;;;;;5056180;28;20052;-68
2023/09/06 06:04:52;;;;;;;5.95;3.53;;;37.20;35.00;;;;;;5050207;28;20442;-69
2023/09/06 06:07:18;;;;;;;7.35;3.72;;;37.80;34.70;;;;;;5063383;28;20520;-68
2023/09/06 06:09:44;;;;;;;7.03;3.47;;;38.40;34.00;;;;;;5077087;28;20358;-71
2023/09/06 06:12:11;;;;;;;9.38;3.70;;;39.20;33.30;;;;;;5077359;28;20016;-69
2023/09/06 06:14:37;;;;;;;5.53;3.35;;;39.80;32.60;;;;;;5076718;28;20017;-69
2023/09/06 06:17:09;;;;;;;6.22;3.60;;;40.40;31.60;;;;;;5076262;28;20057;-68
2023/09/06 06:19:36;;;;;;;7.78;3.75;;;41.10;30.70;;;;;;5075537;28;20112;-68
2023/09/06 06:22:03;;;;;;;7.60;3.88;;;41.70;30.20;;;;;;5076204;28;20037;-68
2023/09/06 06:24:34;;;;;;;4.13;3.40;;;42.20;29.70;;;;;;5074161;28;20074;-69
2023/09/06 06:27:01;;;;;;;4.00;3.30;;;42.50;28.80;;;;;;5076173;28;20028;-73
2023/09/06 06:29:26;;;;;;;5.88;3.05;;;42.40;27.30;;;;;;5070686;28;20056;-72
2023/09/06 06:31:53;;;;;;;5.70;3.30;;;42.30;27.40;;;;;;5077259;28;20523;-69
2023/09/06 06:34:20;;;;;;;5.90;3.45;;;42.40;27.70;;;;;;5077475;28;20033;-70
2023/09/06 06:36:46;;;;;;;5.15;3.10;;;42.60;27.00;;;;;;5077219;28;20044;-70
2023/09/06 06:39:14;;;;;;;4.25;2.97;;;42.90;26.80;;;;;;5076431;28;20020;-70
2023/09/06 06:41:41;;;;;;;4.90;3.08;;;43.00;26.80;;;;;;5058743;28;20354;-71
2023/09/06 06:44:08;;;;;;;5.22;3.13;;;43.30;26.50;;;;;;5059747;28;20052;-71
2023/09/06 06:46:37;;;;;;;5.07;3.50;;;43.40;26.10;;;;;;5076110;28;20021;-71
2023/09/06 06:49:04;;;;;;;4.47;3.72;;;43.60;25.50;;;;;;5039512;28;20035;-69
2023/09/06 06:51:38;;;;;;;4.25;3.35;;;43.60;25.10;;;;;;5043062;28;20029;-70
2023/09/06 06:54:11;;;;;;;6.15;3.08;;;43.80;25.60;;;;;;5063810;28;20029;-70
2023/09/06 06:56:37;;;;;;;3.92;3.17;;;44.20;25.70;;;;;;5076256;28;20028;-71
2023/09/06 06:59:03;;;;;;;6.20;3.20;;;44.60;24.90;;;;;;5075831;28;20029;-71
2023/09/06 07:01:31;;;;;;;5.20;3.08;;;44.90;25.10;;;;;;5076495;28;20016;-71
2023/09/06 07:04:00;;;;;;;3.58;3.00;;;45.20;24.30;;;;;;5051403;28;20033;-71
2023/09/06 07:06:29;;;;;;;4.97;3.25;;;45.40;24.50;;;;;;5074529;28;20457;-72
2023/09/06 07:08:55;;;;;;;5.28;2.92;;;45.40;24.20;;;;;;5070789;28;20512;-71
2023/09/06 07:11:24;;;;;;;4.32;3.40;;;45.50;24.20;;;;;;5073270;28;20031;-71
2023/09/06 07:13:51;;;;;;;4.47;3.25;;;45.30;23.40;;;;;;5076745;28;20075;-70
2023/09/06 07:16:18;;;;;;;4.65;3.15;;;45.00;23.50;;;;;;5075483;28;20027;-72
2023/09/06 07:18:47;;;;;;;4.45;3.00;;;44.60;23.30;;;;;;5059318;28;20335;-71
2023/09/06 07:21:15;;;;;;;4.95;3.30;;;44.10;23.40;;;;;;5076905;28;20450;-70
2023/09/06 07:23:41;;;;;;;4.88;2.90;;;43.90;24.10;;;;;;5058903;28;20031;-70
2023/09/06 07:26:07;;;;;;;5.78;3.30;;;43.70;23.80;;;;;;5075687;28;20092;-70
2023/09/06 07:28:39;;;;;;;4.03;3.13;;;43.20;23.50;;;;;;5075983;28;20040;-71
2023/09/06 07:31:05;;;;;;;5.50;3.40;;;42.80;23.80;;;;;;5076091;28;20027;-71
2023/09/06 07:33:31;;;;;;;6.15;3.30;;;41.60;24.30;;;;;;5057563;28;20621;-70
2023/09/06 07:35:58;;;;;;;4.28;2.92;;;40.00;25.80;;;;;;5053969;28;20025;-70
2023/09/06 07:38:24;;;;;;;5.97;3.35;;;38.40;27.40;;;;;;5057550;28;20082;-72
2023/09/06 07:41:16;;;;;;;5.45;3.28;;;36.80;28.50;;;;;;5075675;28;20123;-70
2023/09/06 07:43:42;;;;;;;5.55;3.15;;;35.10;29.60;;;;;;5070196;28;20102;-70
2023/09/06 07:46:09;;;;;;;4.90;3.22;;;33.90;31.10;;;;;;5072051;28;20032;-71
2023/09/06 07:48:36;;;;;;;5.13;3.67;;;32.90;32.70;;;;;;5074934;28;20033;-67
2023/09/06 07:51:05;;;;;;;4.82;3.55;;;32.30;33.80;;;;;;5075588;28;20036;-70
2023/09/06 07:53:31;;;;;;;7.15;3.30;;;31.90;34.80;;;;;;5075097;28;20021;-70
2023/09/06 07:55:58;;;;;;;4.82;3.28;;;31.40;35.70;;;;;;5070656;28;20021;-71
2023/09/06 07:58:24;;;;;;;7.00;3.50;;;31.10;36.20;;;;;;5072456;28;20025;-71
2023/09/06 08:00:51;;;;;;;3.30;3.00;;;31.00;35.90;;;;;;5057506;28;20029;-72
2023/09/06 08:03:29;;;;;;;5.15;3.85;;;30.80;36.80;;;;;;5073540;28;20025;-70
2023/09/06 08:05:55;;;;;;;6.80;3.33;;;30.70;37.20;;;;;;5043071;28;20073;-70
2023/09/06 08:08:20;;;;;;;7.50;3.30;;;30.60;37.30;;;;;;5073497;28;20123;-73
2023/09/06 08:10:47;;;;;;;5.10;3.50;;;30.40;37.80;;;;;;5074224;28;20370;-71
2023/09/06 08:13:13;;;;;;;6.38;3.40;;;30.30;37.30;;;;;;5056865;28;20048;-72
2023/09/06 08:15:38;;;;;;;5.43;3.50;;;30.00;37.70;;;;;;5074645;28;20062;-72
2023/09/06 08:18:05;;;;;;;7.95;3.65;;;29.80;38.70;;;;;;5056557;28;20124;-71
2023/09/06 08:20:32;;;;;;;4.40;3.25;;;29.80;38.50;;;;;;5075185;28;20020;-72
2023/09/06 08:22:58;;;;;;;4.18;3.17;;;29.80;38.90;;;;;;5074181;28;20361;-72
2023/09/06 08:25:24;;;;;;;4.90;3.03;;;29.70;38.40;;;;;;5073479;28;20017;-72
2023/09/06 08:27:51;;;;;;;5.53;3.30;;;29.70;35.70;;;;;;5074685;28;20068;-71
2023/09/06 08:30:18;;;;;;;3.70;3.00;;;29.60;37.00;;;;;;5073117;28;20020;-72
2023/09/06 08:32:46;;;;;;;4.95;3.20;;;29.50;36.70;;;;;;5072594;28;20514;-73
2023/09/06 08:35:13;;;;;;;3.65;2.97;;;29.20;36.70;;;;;;5070988;28;20036;-72
2023/09/06 08:37:39;;;;;;;5.18;3.10;;;29.20;37.40;;;;;;5073152;28;20039;-72
2023/09/06 08:40:07;;;;;;;3.10;2.80;;;29.10;37.40;;;;;;5064345;28;20028;-72
2023/09/06 08:42:34;;;;;;;3.38;2.95;;;29.10;38.00;;;;;;5062977;28;20475;-72
2023/09/06 08:45:02;;;;;;;4.93;2.95;;;28.90;38.20;;;;;;5061523;28;20025;-71
2023/09/06 08:47:28;;;;;;;3.78;3.00;;;28.90;38.30;;;;;;5072676;28;20036;-72
2023/09/06 08:49:54;;;;;;;4.68;3.00;;;28.90;37.60;;;;;;5064390;28;20024;-71
2023/09/06 08:52:21;;;;;;;5.50;2.60;;;28.90;37.60;;;;;;5071965;28;20025;-71
2023/09/06 08:54:50;;;;;;;3.30;2.85;;;28.90;38.00;;;;;;5072093;28;20031;-72
2023/09/06 08:57:17;;;;;;;4.95;2.90;;;28.90;38.00;;;;;;5052348;28;20454;-72
2023/09/06 08:59:45;;;;;;;5.13;3.08;;;28.90;38.20;;;;;;5057350;28;20020;-72
2023/09/06 09:02:13;;;;;;;14.60;12.35;;;28.90;39.00;;;;;;5074697;28;20458;-72
2023/09/06 09:04:42;;;;;;;7.45;4.20;;;28.90;37.90;;;;;;5073410;28;20127;-72
2023/09/06 09:07:10;;;;;;;3.53;3.00;;;28.90;38.20;;;;;;5056434;28;20090;-72
2023/09/06 09:09:59;;;;;;;5.25;3.10;;;28.80;38.00;;;;;;5074800;28;20363;-72
2023/09/06 09:12:26;;;;;;;3.65;3.00;;;28.80;38.70;;;;;;5057017;28;20032;-66
2023/09/06 09:14:54;;;;;;;5.07;2.88;;;28.70;38.70;;;;;;5074156;28;20039;-67
2023/09/06 09:17:24;;;;;;;7.13;3.03;;;28.70;39.40;;;;;;5073549;28;20446;-66
2023/09/06 09:19:51;;;;;;;5.28;2.90;;;28.60;39.20;;;;;;5073484;28;20111;-67
2023/09/06 09:22:23;;;;;;;5.35;3.22;;;28.60;39.20;;;;;;5077495;28;20161;-66
2023/09/06 09:24:49;;;;;;;3.88;3.00;;;28.60;39.40;;;;;;5075063;28;20032;-67
2023/09/06 09:27:19;;;;;;;4.93;2.80;;;28.70;39.10;;;;;;5076755;28;20439;-65
2023/09/06 09:29:47;;;;;;;3.80;2.90;;;28.60;39.00;;;;;;5071491;28;20073;-67
2023/09/06 09:32:14;;;;;;;3.67;2.70;;;28.50;38.70;;;;;;5069675;28;20032;-67
2023/09/06 09:34:42;;;;;;;4.00;2.67;;;28.40;38.50;;;;;;5077817;28;20040;-67
2023/09/06 09:37:09;;;;;;;4.45;2.80;;;28.50;38.00;;;;;;5077869;28;20021;-66
2023/09/06 09:39:34;;;;;;;5.43;3.08;;;28.50;38.50;;;;;;5077602;28;20032;-66
2023/09/06 09:42:04;;;;;;;3.80;2.83;;;28.50;38.50;;;;;;5077180;28;20365;-66
2023/09/06 09:44:31;;;;;;;6.82;2.83;;;28.50;38.70;;;;;;5076097;28;20362;-65
2023/09/06 09:47:05;;;;;;;3.92;2.83;;;28.60;38.80;;;;;;5076617;28;20059;-66
2023/09/06 09:49:33;;;;;;;4.93;3.00;;;28.80;38.50;;;;;;5060696;28;20028;-65
2023/09/06 09:51:59;;;;;;;5.00;2.90;;;28.80;38.80;;;;;;5077948;28;20052;-65
2023/09/06 09:54:28;;;;;;;4.07;2.53;;;28.70;38.50;;;;;;5073803;28;20327;-65
2023/09/06 09:57:07;;;;;;;5.75;2.70;;;28.70;38.30;;;;;;5064385;28;20037;-66
2023/09/06 09:59:35;;;;;;;4.95;2.70;;;28.70;37.90;;;;;;5075940;28;20063;-67
2023/09/06 10:02:15;;;;;;;4.63;2.88;;;28.80;37.40;;;;;;5076693;28;20419;-67
2023/09/06 10:04:43;;;;;;;3.88;2.85;;;28.70;36.80;;;;;;5037041;28;20037;-67
2023/09/06 10:07:13;;;;;;;4.90;2.67;;;28.70;37.10;;;;;;5072112;28;20044;-66
2023/09/06 10:09:43;;;;;;;4.10;2.88;;;28.70;36.70;;;;;;5075928;28;20054;-67
2023/09/06 10:12:13;;;;;;;3.05;2.60;;;28.70;38.40;;;;;;5072818;28;20111;-65
2023/09/06 10:14:41;;;;;;;4.55;2.60;;;28.70;38.70;;;;;;5075585;28;20029;-67
2023/09/06 10:17:11;;;;;;;4.10;2.85;;;28.70;38.80;;;;;;5077343;28;20093;-65
2023/09/06 10:19:38;;;;;;;3.40;2.63;;;28.80;38.70;;;;;;5076690;28;20447;-66
2023/09/06 10:22:14;;;;;;;3.42;2.60;;;28.80;38.40;;;;;;5042080;28;20023;-66
2023/09/06 10:24:43;;;;;;;4.30;2.90;;;28.80;37.80;;;;;;5075894;28;20458;-66
2023/09/06 10:27:14;;;;;;;4.60;3.10;;;28.70;38.50;;;;;;5077572;28;20036;-65
2023/09/06 10:29:54;;;;;;;3.67;2.90;;;28.70;38.60;;;;;;5077490;28;20031;-67
2023/09/06 10:32:22;;;;;;;4.18;2.55;;;28.70;38.70;;;;;;5076287;28;20396;-65
2023/09/06 10:35:29;;;;;;;5.47;2.47;;;28.80;38.80;;;;;;5077739;28;20350;-65
2023/09/06 10:38:15;;;;;;;4.60;2.40;;;29.00;35.80;;;;;;5077677;28;20024;-68
2023/09/06 10:41:06;;;;;;;3.00;2.70;;;28.90;35.10;;;;;;5077718;28;20033;-68
2023/09/06 10:44:07;;;;;;;3.15;2.60;;;28.90;36.70;;;;;;5065664;28;20040;-67
2023/09/06 10:46:37;;;;;;;4.05;2.65;;;28.90;36.90;;;;;;5077545;28;20045;-65
2023/09/06 10:49:16;;;;;;;3.85;2.45;;;28.90;35.90;;;;;;5077146;28;20020;-65
2023/09/06 10:52:02;;;;;;;2.70;2.50;;;28.90;36.00;;;;;;5059543;28;20028;-67
2023/09/06 10:54:41;;;;;;;4.68;2.50;;;28.90;36.40;;;;;;5077080;28;20031;-67
2023/09/06 10:57:12;;;;;;;5.43;3.00;;;28.90;37.00;;;;;;5077075;28;20025;-67
2023/09/06 10:59:41;;;;;;;3.95;2.60;;;29.00;36.30;;;;;;5077396;28;20059;-67
2023/09/06 11:02:15;;;;;;;5.55;2.53;;;28.90;37.50;;;;;;5077007;28;20028;-68
2023/09/06 11:04:42;;;;;;;3.38;2.72;;;29.00;37.90;;;;;;5059452;28;20449;-68
2023/09/06 11:07:12;;;;;;;4.38;2.67;;;29.20;37.80;;;;;;5059049;28;20048;-67
2023/09/06 11:09:43;;;;;;;5.47;2.65;;;29.20;37.50;;;;;;5077333;28;20434;-68
2023/09/06 11:12:11;;;;;;;3.42;2.45;;;29.30;37.60;;;;;;5075847;28;20028;-67
2023/09/06 11:14:37;;;;;;;2.95;2.47;;;29.40;37.30;;;;;;5073630;28;20025;-66
2023/09/06 11:17:20;;;;;;;3.10;2.70;;;29.40;36.00;;;;;;5075156;28;20032;-65
2023/09/06 11:19:46;;;;;;;;;;;29.30;37.00;;;;;;5075674;28;20047;-66
2023/09/06 11:22:12;;;;;;;2.60;2.40;;;29.30;35.60;;;;;;5075089;28;19905;-67
2023/09/06 11:24:38;;;;;;;4.13;2.55;;;29.30;36.60;;;;;;5074779;28;20028;-67
2023/09/06 11:27:22;;;;;;;2.70;2.50;;;29.30;36.60;;;;;;5074404;28;20028;-66
2023/09/06 11:30:10;;;;;;;3.97;2.70;;;29.40;36.20;;;;;;5074458;28;20033;-66
2023/09/06 11:32:36;;;;;;;3.75;2.50;;;29.40;35.70;;;;;;5074489;28;20108;-67
2023/09/06 11:35:09;;;;;;;2.58;2.20;;;29.40;36.00;;;;;;5056739;28;20032;-66
2023/09/06 11:37:38;;;;;;;2.80;2.40;;;29.40;36.20;;;;;;5074289;28;20115;-67
2023/09/06 11:40:14;;;;;;;2.50;2.20;;;29.40;36.20;;;;;;5076002;28;20074;-64
2023/09/06 11:42:47;;;;;;;3.10;2.10;;;29.50;36.20;;;;;;5076693;28;20052;-65
2023/09/06 11:45:19;;;;;;;;;;;29.70;36.50;;;;;;5076737;28;20431;-64
2023/09/06 11:47:46;;;;;;;2.70;2.50;;;29.70;36.40;;;;;;5075991;28;20338;-67
2023/09/06 11:50:18;;;;;;;2.60;2.40;;;29.60;36.70;;;;;;5058356;28;20020;-66
2023/09/06 11:52:53;;;;;;;4.18;2.30;;;29.60;36.10;;;;;;5076243;28;20035;-64
2023/09/06 11:55:22;;;;;;;3.17;2.38;;;29.50;35.80;;;;;;5075805;28;20028;-68
2023/09/06 11:57:57;;;;;;;2.67;2.22;;;29.50;35.10;;;;;;5075750;28;20071;-66
2023/09/06 12:00:35;;;;;;;2.65;2.15;;;29.50;35.10;;;;;;5059133;28;20344;-65
2023/09/06 12:03:07;;;;;;;3.75;2.58;;;29.60;35.60;;;;;;5058162;28;20037;-64
2023/09/06 12:05:38;;;;;;;2.97;2.40;;;29.70;36.10;;;;;;5075956;28;20029;-66
2023/09/06 12:08:07;;;;;;;4.35;2.65;;;29.70;35.10;;;;;;5075389;28;20060;-63
2023/09/06 12:10:34;;;;;;;2.47;2.28;;;29.60;35.50;;;;;;5075458;28;20086;-68
2023/09/06 12:13:01;;;;;;;2.60;2.40;;;29.50;35.80;;;;;;5075833;28;20020;-67
2023/09/06 12:15:28;;;;;;;3.63;2.33;;;29.50;35.20;;;;;;5057956;28;20145;-67
2023/09/06 12:17:56;;;;;;;4.18;2.38;;;29.50;35.80;;;;;;5075445;28;20032;-68
2023/09/06 12:20:24;;;;;;;2.50;2.28;;;29.40;35.70;;;;;;5075697;28;20028;-64
2023/09/06 12:22:53;;;;;;;2.60;2.40;;;29.40;36.80;;;;;;5075731;28;20094;-67
2023/09/06 12:25:20;;;;;;;5.18;2.58;;;29.50;37.00;;;;;;5075387;28;20028;-64
2023/09/06 12:27:49;;;;;;;2.80;2.10;;;29.60;37.10;;;;;;5075421;28;20446;-64
2023/09/06 12:30:20;;;;;;;2.65;2.20;;;29.70;35.90;;;;;;5075288;28;20075;-65
2023/09/06 12:32:47;;;;;;;5.38;2.13;;;29.80;35.70;;;;;;5075906;28;20073;-65
2023/09/06 12:35:13;;;;;;;3.53;2.42;;;29.80;35.10;;;;;;5075557;28;20021;-67
2023/09/06 12:37:40;;;;;;;6.15;2.28;;;29.90;35.80;;;;;;5075263;28;20085;-65
2023/09/06 12:40:13;;;;;;;3.10;2.28;;;29.80;34.80;;;;;;5041088;28;20028;-67
2023/09/06 12:42:47;;;;;;;2.33;2.03;;;29.70;35.20;;;;;;5075867;28;20064;-67
2023/09/06 12:45:28;;;;;;;2.63;2.33;;;29.80;35.20;;;;;;5075252;28;20094;-65
2023/09/06 12:47:55;;;;;;;2.03;1.92;;;29.90;33.50;;;;;;5057540;28;20056;-66
2023/09/06 12:50:22;;;;;;;3.33;2.53;;;29.80;34.60;;;;;;5075678;28;20032;-67
2023/09/06 12:52:48;;;;;;;4.22;2.55;;;29.80;34.80;;;;;;5075075;28;20040;-65
2023/09/06 12:55:15;;;;;;;3.08;2.38;;;29.90;35.30;;;;;;5074737;28;20342;-65
2023/09/06 12:57:42;;;;;;;3.65;2.35;;;29.90;34.70;;;;;;5057512;28;20027;-67